Calypso, North Carolina
Current Conditions -  °F | °C
As of 11:35 AM on Thursday 29 Jan 2015 (Local Time) from KDPL Reporting Station
Clear Clear  
Wind Chill: 40°   Ceiling: Unl
Heat Index: 40°   Visibility: 10mi
Dew Point: 15°   Wind: 0mph
Humidity: 35%   Direction: NA
Pressure: 30.36"   Gusts: NA
Location:  35.15°N, 78.11°W
Report Text: KDPL 291635Z AUTO 00000KT 10SM CLR 05/M09 A3036 RMK AO2 T00471095
Loading
Personal Weather Stations






























Interactive Weather Map New forecast layout! Learn more

10-Day Weather Forecast

Advertisements
Track Severe Weather on mobile